createdAt,value
2022-12-31T00:00:00.282Z,3.5
2022-12-31T00:10:00.245Z,3.5
2022-12-31T00:20:00.224Z,3.5
2022-12-31T00:30:04.400Z,3.5
2022-12-31T00:40:00.239Z,3.5
2022-12-31T00:50:00.224Z,3.4
2022-12-31T01:00:00.276Z,3.4
2022-12-31T01:10:00.238Z,3.4
2022-12-31T01:20:00.231Z,3.4
2022-12-31T01:30:00.251Z,3.5
2022-12-31T01:40:00.315Z,3.4
2022-12-31T01:50:00.291Z,3.4
2022-12-31T02:00:00.288Z,3.5
2022-12-31T02:10:00.337Z,3.5
2022-12-31T02:20:00.238Z,3.5
2022-12-31T02:30:00.274Z,3.5
2022-12-31T02:40:00.304Z,3.5
2022-12-31T02:50:00.312Z,3.6
2022-12-31T03:00:00.267Z,3.6
2022-12-31T03:10:00.237Z,3.6
2022-12-31T03:20:00.228Z,3.7
2022-12-31T03:30:00.264Z,3.6
2022-12-31T03:40:00.275Z,3.6
2022-12-31T03:50:00.244Z,3.7
2022-12-31T04:00:00.376Z,3.7
2022-12-31T04:10:00.256Z,3.7
2022-12-31T04:20:00.256Z,3.7
2022-12-31T04:30:00.273Z,3.7
2022-12-31T04:40:05.483Z,3.7
2022-12-31T04:50:00.275Z,3.7
2022-12-31T05:00:00.285Z,3.7
2022-12-31T05:10:00.315Z,3.7
2022-12-31T05:20:00.257Z,3.8
2022-12-31T05:30:00.282Z,3.8
2022-12-31T05:40:00.269Z,3.8
2022-12-31T05:50:00.278Z,3.8
2022-12-31T06:00:00.257Z,3.7
2022-12-31T06:10:00.269Z,3.7
2022-12-31T06:20:01.160Z,3.7
2022-12-31T06:30:00.264Z,3.6
2022-12-31T06:40:00.254Z,3.7
2022-12-31T06:50:00.257Z,3.7
2022-12-31T07:00:00.332Z,3.6
2022-12-31T07:10:00.301Z,3.7
2022-12-31T07:20:00.253Z,3.7
2022-12-31T07:30:00.319Z,3.8
2022-12-31T07:40:00.275Z,3.9
2022-12-31T07:50:00.244Z,4.0
2022-12-31T08:00:00.260Z,4.4
2022-12-31T08:10:00.259Z,4.5
2022-12-31T08:20:00.261Z,4.4
2022-12-31T08:30:00.253Z,4.4
2022-12-31T08:40:00.335Z,4.5
2022-12-31T08:50:00.264Z,4.6
2022-12-31T09:00:00.315Z,4.5
2022-12-31T09:10:00.239Z,4.7
2022-12-31T09:20:00.217Z,5.0
2022-12-31T09:30:00.256Z,5.8
2022-12-31T09:40:00.233Z,6.6
2022-12-31T09:50:00.321Z,7.1
2022-12-31T10:00:00.264Z,6.7
2022-12-31T10:10:00.239Z,6.9
2022-12-31T10:20:00.245Z,7.3
2022-12-31T10:30:00.271Z,7.1
2022-12-31T10:40:00.273Z,6.9
2022-12-31T10:50:00.331Z,6.8
2022-12-31T11:00:00.283Z,6.8
2022-12-31T11:10:00.250Z,6.8
2022-12-31T11:20:00.259Z,6.9
2022-12-31T11:30:00.270Z,7.2
2022-12-31T11:40:00.279Z,7.8
2022-12-31T11:50:00.244Z,8.3
2022-12-31T12:00:00.412Z,8.1
2022-12-31T12:10:00.226Z,8.1
2022-12-31T12:20:00.266Z,8.1
2022-12-31T12:30:00.255Z,8.1
2022-12-31T12:40:00.252Z,8.0
2022-12-31T12:50:00.276Z,8.1
2022-12-31T13:00:00.252Z,8.1
2022-12-31T13:10:00.325Z,8.1
2022-12-31T13:20:00.267Z,7.9
2022-12-31T13:30:00.247Z,7.9
2022-12-31T13:40:00.236Z,7.7
2022-12-31T13:50:00.274Z,7.6
2022-12-31T14:00:00.260Z,7.7
2022-12-31T14:10:00.236Z,7.8
2022-12-31T14:20:00.337Z,8.1
2022-12-31T14:30:00.218Z,8.1
2022-12-31T14:40:00.251Z,7.7
2022-12-31T14:50:02.277Z,7.4
2022-12-31T15:00:00.346Z,7.2
2022-12-31T15:10:00.223Z,7.1
2022-12-31T15:20:00.354Z,7.1
2022-12-31T15:30:00.294Z,7.6
2022-12-31T15:40:00.492Z,8.9
2022-12-31T15:50:00.382Z,9.6
2022-12-31T16:00:00.236Z,9.5
2022-12-31T16:10:00.251Z,9.2
2022-12-31T16:20:00.298Z,8.8
2022-12-31T16:30:00.336Z,7.7
2022-12-31T16:40:00.256Z,7.1
2022-12-31T16:50:00.348Z,8.0
2022-12-31T17:00:00.256Z,8.6
2022-12-31T17:10:00.230Z,8.3
2022-12-31T17:20:00.738Z,8.7
2022-12-31T17:30:00.262Z,9.4
2022-12-31T17:40:24.489Z,9.3
2022-12-31T17:50:00.245Z,9.3
2022-12-31T18:00:00.395Z,8.7
2022-12-31T18:10:00.236Z,7.7
2022-12-31T18:20:05.321Z,7.1
2022-12-31T18:30:04.759Z,7.5
2022-12-31T18:40:00.291Z,8.0
2022-12-31T18:50:00.263Z,9.0
2022-12-31T19:00:00.282Z,7.6
2022-12-31T19:10:00.384Z,6.6
2022-12-31T19:20:00.257Z,5.9
2022-12-31T19:30:00.244Z,5.6
2022-12-31T19:40:00.241Z,5.6
2022-12-31T19:50:00.252Z,5.4
2022-12-31T20:00:00.401Z,5.1
2022-12-31T20:10:00.253Z,4.8
2022-12-31T20:20:00.362Z,4.7
2022-12-31T20:30:00.254Z,4.4
2022-12-31T20:40:00.250Z,4.3
2022-12-31T20:50:12.551Z,4.3
2022-12-31T21:00:00.291Z,4.3
2022-12-31T21:10:00.267Z,4.4
2022-12-31T21:20:00.260Z,4.3
2022-12-31T21:40:00.286Z,4.0
2022-12-31T21:50:00.270Z,3.8
2022-12-31T22:00:31.948Z,3.7
2022-12-31T22:10:00.231Z,3.8
2022-12-31T22:20:28.403Z,3.7
2022-12-31T22:30:00.235Z,3.6
2022-12-31T22:40:00.326Z,3.4
2022-12-31T22:50:00.244Z,3.2
2022-12-31T23:00:00.321Z,3.0
2022-12-31T23:10:00.261Z,3.0
2022-12-31T23:20:00.257Z,3.1
2022-12-31T23:30:00.238Z,3.1
2022-12-31T23:40:00.321Z,3.4
2022-12-31T23:50:00.236Z,3.5
